sensor_id;sensor_type;location;lat;lon;timestamp;P1;durP1;ratioP1;P2;durP2;ratioP2
8297;SDS011;4187;42.778;23.242;2023-09-07T00:01:55;10.98;;;4.88;;
8297;SDS011;4187;42.778;23.242;2023-09-07T00:04:22;9.00;;;4.82;;
8297;SDS011;4187;42.778;23.242;2023-09-07T00:06:49;5.88;;;5.25;;
8297;SDS011;4187;42.778;23.242;2023-09-07T00:09:16;5.72;;;5.28;;
8297;SDS011;4187;42.778;23.242;2023-09-07T00:11:45;7.15;;;5.50;;
8297;SDS011;4187;42.778;23.242;2023-09-07T00:14:12;5.53;;;5.03;;
8297;SDS011;4187;42.778;23.242;2023-09-07T00:16:39;9.15;;;4.90;;
8297;SDS011;4187;42.778;23.242;2023-09-07T00:19:05;8.35;;;5.78;;
8297;SDS011;4187;42.778;23.242;2023-09-07T00:21:32;6.63;;;5.30;;
8297;SDS011;4187;42.778;23.242;2023-09-07T00:23:59;6.22;;;5.65;;
8297;SDS011;4187;42.778;23.242;2023-09-07T00:26:30;6.68;;;5.78;;
8297;SDS011;4187;42.778;23.242;2023-09-07T00:28:59;7.38;;;6.68;;
8297;SDS011;4187;42.778;23.242;2023-09-07T00:31:26;7.40;;;6.50;;
8297;SDS011;4187;42.778;23.242;2023-09-07T00:33:53;7.40;;;6.53;;
8297;SDS011;4187;42.778;23.242;2023-09-07T00:36:19;7.55;;;6.72;;
8297;SDS011;4187;42.778;23.242;2023-09-07T00:38:46;9.00;;;7.00;;
8297;SDS011;4187;42.778;23.242;2023-09-07T00:41:13;9.70;;;7.18;;
8297;SDS011;4187;42.778;23.242;2023-09-07T00:43:40;9.05;;;8.23;;
8297;SDS011;4187;42.778;23.242;2023-09-07T00:46:08;9.10;;;8.25;;
8297;SDS011;4187;42.778;23.242;2023-09-07T00:48:35;8.73;;;7.80;;
8297;SDS011;4187;42.778;23.242;2023-09-07T00:51:03;12.68;;;8.93;;
8297;SDS011;4187;42.778;23.242;2023-09-07T00:53:30;10.30;;;8.55;;
8297;SDS011;4187;42.778;23.242;2023-09-07T00:55:58;9.57;;;8.57;;
8297;SDS011;4187;42.778;23.242;2023-09-07T00:58:25;9.95;;;8.98;;
8297;SDS011;4187;42.778;23.242;2023-09-07T01:00:53;10.57;;;8.57;;
8297;SDS011;4187;42.778;23.242;2023-09-07T01:03:21;10.10;;;9.07;;
8297;SDS011;4187;42.778;23.242;2023-09-07T01:05:51;10.20;;;8.10;;
8297;SDS011;4187;42.778;23.242;2023-09-07T01:08:23;9.90;;;8.60;;
8297;SDS011;4187;42.778;23.242;2023-09-07T01:10:51;9.38;;;8.27;;
8297;SDS011;4187;42.778;23.242;2023-09-07T01:13:18;9.38;;;8.00;;
8297;SDS011;4187;42.778;23.242;2023-09-07T01:15:45;10.35;;;8.30;;
8297;SDS011;4187;42.778;23.242;2023-09-07T01:18:13;8.77;;;7.95;;
8297;SDS011;4187;42.778;23.242;2023-09-07T01:20:43;10.52;;;9.05;;
8297;SDS011;4187;42.778;23.242;2023-09-07T01:23:12;9.90;;;8.90;;
8297;SDS011;4187;42.778;23.242;2023-09-07T01:25:40;12.00;;;8.77;;
8297;SDS011;4187;42.778;23.242;2023-09-07T01:28:08;11.00;;;9.75;;
8297;SDS011;4187;42.778;23.242;2023-09-07T01:30:35;15.15;;;9.77;;
8297;SDS011;4187;42.778;23.242;2023-09-07T01:33:04;10.63;;;9.68;;
8297;SDS011;4187;42.778;23.242;2023-09-07T01:35:31;12.07;;;10.77;;
8297;SDS011;4187;42.778;23.242;2023-09-07T01:38:00;12.57;;;11.35;;
8297;SDS011;4187;42.778;23.242;2023-09-07T01:40:28;13.10;;;11.73;;
8297;SDS011;4187;42.778;23.242;2023-09-07T01:42:55;13.07;;;11.88;;
8297;SDS011;4187;42.778;23.242;2023-09-07T01:45:22;13.05;;;11.75;;
8297;SDS011;4187;42.778;23.242;2023-09-07T01:47:49;13.32;;;12.13;;
8297;SDS011;4187;42.778;23.242;2023-09-07T01:50:16;13.38;;;12.05;;
8297;SDS011;4187;42.778;23.242;2023-09-07T01:52:45;14.57;;;13.07;;
8297;SDS011;4187;42.778;23.242;2023-09-07T01:55:13;13.27;;;11.93;;
8297;SDS011;4187;42.778;23.242;2023-09-07T01:57:42;13.93;;;12.43;;
8297;SDS011;4187;42.778;23.242;2023-09-07T02:00:09;15.15;;;12.43;;
8297;SDS011;4187;42.778;23.242;2023-09-07T02:02:37;12.73;;;11.52;;
8297;SDS011;4187;42.778;23.242;2023-09-07T02:05:04;13.60;;;12.32;;
8297;SDS011;4187;42.778;23.242;2023-09-07T02:07:31;12.73;;;11.57;;
8297;SDS011;4187;42.778;23.242;2023-09-07T02:09:58;12.13;;;10.90;;
8297;SDS011;4187;42.778;23.242;2023-09-07T02:12:25;14.63;;;12.23;;
8297;SDS011;4187;42.778;23.242;2023-09-07T02:14:53;16.92;;;11.32;;
8297;SDS011;4187;42.778;23.242;2023-09-07T02:17:20;13.32;;;11.43;;
8297;SDS011;4187;42.778;23.242;2023-09-07T02:19:47;12.25;;;11.20;;
8297;SDS011;4187;42.778;23.242;2023-09-07T02:22:14;12.02;;;10.93;;
8297;SDS011;4187;42.778;23.242;2023-09-07T02:24:40;12.48;;;11.18;;
8297;SDS011;4187;42.778;23.242;2023-09-07T02:27:07;14.43;;;10.57;;
8297;SDS011;4187;42.778;23.242;2023-09-07T02:29:34;11.10;;;9.98;;
8297;SDS011;4187;42.778;23.242;2023-09-07T02:32:03;10.25;;;9.35;;
8297;SDS011;4187;42.778;23.242;2023-09-07T02:34:31;10.95;;;9.73;;
8297;SDS011;4187;42.778;23.242;2023-09-07T02:37:01;10.35;;;9.30;;
8297;SDS011;4187;42.778;23.242;2023-09-07T02:39:28;13.25;;;8.48;;
8297;SDS011;4187;42.778;23.242;2023-09-07T02:41:55;9.98;;;9.07;;
8297;SDS011;4187;42.778;23.242;2023-09-07T02:44:22;11.57;;;10.43;;
8297;SDS011;4187;42.778;23.242;2023-09-07T02:46:49;11.27;;;10.18;;
8297;SDS011;4187;42.778;23.242;2023-09-07T02:49:17;10.35;;;9.15;;
8297;SDS011;4187;42.778;23.242;2023-09-07T02:51:44;12.52;;;11.20;;
8297;SDS011;4187;42.778;23.242;2023-09-07T02:54:10;12.07;;;10.80;;
8297;SDS011;4187;42.778;23.242;2023-09-07T02:56:37;12.77;;;10.90;;
8297;SDS011;4187;42.778;23.242;2023-09-07T02:59:04;13.38;;;11.55;;
8297;SDS011;4187;42.778;23.242;2023-09-07T03:01:31;11.90;;;10.80;;
8297;SDS011;4187;42.778;23.242;2023-09-07T03:03:58;13.82;;;11.32;;
8297;SDS011;4187;42.778;23.242;2023-09-07T03:06:26;11.73;;;10.73;;
8297;SDS011;4187;42.778;23.242;2023-09-07T03:08:53;11.75;;;10.68;;
8297;SDS011;4187;42.778;23.242;2023-09-07T03:11:20;12.00;;;10.80;;
8297;SDS011;4187;42.778;23.242;2023-09-07T03:13:46;14.00;;;10.68;;
8297;SDS011;4187;42.778;23.242;2023-09-07T03:16:13;11.45;;;10.25;;
8297;SDS011;4187;42.778;23.242;2023-09-07T03:18:40;11.57;;;10.55;;
8297;SDS011;4187;42.778;23.242;2023-09-07T03:21:07;12.23;;;11.10;;
8297;SDS011;4187;42.778;23.242;2023-09-07T03:23:35;12.20;;;11.00;;
8297;SDS011;4187;42.778;23.242;2023-09-07T03:26:04;12.27;;;10.90;;
8297;SDS011;4187;42.778;23.242;2023-09-07T03:28:31;13.50;;;11.48;;
8297;SDS011;4187;42.778;23.242;2023-09-07T03:30:58;12.90;;;11.63;;
8297;SDS011;4187;42.778;23.242;2023-09-07T03:33:25;13.30;;;10.98;;
8297;SDS011;4187;42.778;23.242;2023-09-07T03:35:51;13.35;;;11.38;;
8297;SDS011;4187;42.778;23.242;2023-09-07T03:38:23;13.30;;;11.95;;
8297;SDS011;4187;42.778;23.242;2023-09-07T03:40:52;12.25;;;11.10;;
8297;SDS011;4187;42.778;23.242;2023-09-07T03:43:19;12.90;;;11.70;;
8297;SDS011;4187;42.778;23.242;2023-09-07T03:45:46;14.27;;;12.80;;
8297;SDS011;4187;42.778;23.242;2023-09-07T03:48:13;12.88;;;11.55;;
8297;SDS011;4187;42.778;23.242;2023-09-07T03:50:40;12.68;;;11.48;;
8297;SDS011;4187;42.778;23.242;2023-09-07T03:53:06;14.75;;;12.88;;
8297;SDS011;4187;42.778;23.242;2023-09-07T03:55:39;13.52;;;12.20;;
8297;SDS011;4187;42.778;23.242;2023-09-07T03:58:08;13.23;;;11.90;;
8297;SDS011;4187;42.778;23.242;2023-09-07T04:00:37;13.00;;;11.07;;
8297;SDS011;4187;42.778;23.242;2023-09-07T04:03:04;16.02;;;11.52;;
8297;SDS011;4187;42.778;23.242;2023-09-07T04:05:31;12.10;;;11.00;;
8297;SDS011;4187;42.778;23.242;2023-09-07T04:07:58;13.32;;;9.23;;
8297;SDS011;4187;42.778;23.242;2023-09-07T04:10:27;12.73;;;9.63;;
8297;SDS011;4187;42.778;23.242;2023-09-07T04:12:54;12.32;;;9.05;;
8297;SDS011;4187;42.778;23.242;2023-09-07T04:15:23;11.18;;;9.07;;
8297;SDS011;4187;42.778;23.242;2023-09-07T04:17:50;11.88;;;8.80;;
8297;SDS011;4187;42.778;23.242;2023-09-07T04:20:18;11.38;;;8.55;;
8297;SDS011;4187;42.778;23.242;2023-09-07T04:22:45;10.48;;;9.43;;
8297;SDS011;4187;42.778;23.242;2023-09-07T04:25:12;10.07;;;9.07;;
8297;SDS011;4187;42.778;23.242;2023-09-07T04:27:39;10.80;;;9.38;;
8297;SDS011;4187;42.778;23.242;2023-09-07T04:30:06;11.27;;;8.60;;
8297;SDS011;4187;42.778;23.242;2023-09-07T04:32:35;9.85;;;8.85;;
8297;SDS011;4187;42.778;23.242;2023-09-07T04:35:02;8.00;;;7.20;;
8297;SDS011;4187;42.778;23.242;2023-09-07T04:37:29;10.65;;;7.88;;
8297;SDS011;4187;42.778;23.242;2023-09-07T04:39:56;9.13;;;7.75;;
8297;SDS011;4187;42.778;23.242;2023-09-07T04:42:23;8.60;;;7.90;;
8297;SDS011;4187;42.778;23.242;2023-09-07T04:44:50;10.45;;;7.13;;
8297;SDS011;4187;42.778;23.242;2023-09-07T04:47:16;8.45;;;7.63;;
8297;SDS011;4187;42.778;23.242;2023-09-07T04:49:49;8.32;;;6.85;;
8297;SDS011;4187;42.778;23.242;2023-09-07T04:52:16;9.10;;;7.28;;
8297;SDS011;4187;42.778;23.242;2023-09-07T04:54:43;7.47;;;6.72;;
8297;SDS011;4187;42.778;23.242;2023-09-07T04:57:10;8.05;;;7.25;;
8297;SDS011;4187;42.778;23.242;2023-09-07T04:59:37;12.60;;;7.57;;
8297;SDS011;4187;42.778;23.242;2023-09-07T05:02:04;9.98;;;7.38;;
8297;SDS011;4187;42.778;23.242;2023-09-07T05:04:31;7.50;;;6.80;;
8297;SDS011;4187;42.778;23.242;2023-09-07T05:06:59;8.52;;;7.43;;
8297;SDS011;4187;42.778;23.242;2023-09-07T05:09:26;11.00;;;8.05;;
8297;SDS011;4187;42.778;23.242;2023-09-07T05:11:54;8.60;;;7.18;;
8297;SDS011;4187;42.778;23.242;2023-09-07T05:14:21;8.23;;;7.30;;
8297;SDS011;4187;42.778;23.242;2023-09-07T05:16:49;7.78;;;6.95;;
8297;SDS011;4187;42.778;23.242;2023-09-07T05:19:16;7.63;;;6.93;;
8297;SDS011;4187;42.778;23.242;2023-09-07T05:21:43;10.30;;;7.07;;
8297;SDS011;4187;42.778;23.242;2023-09-07T05:24:12;8.88;;;6.88;;
8297;SDS011;4187;42.778;23.242;2023-09-07T05:26:39;9.18;;;7.28;;
8297;SDS011;4187;42.778;23.242;2023-09-07T05:29:06;8.48;;;6.82;;
8297;SDS011;4187;42.778;23.242;2023-09-07T05:31:33;10.30;;;7.05;;
8297;SDS011;4187;42.778;23.242;2023-09-07T05:34:00;11.07;;;7.25;;
8297;SDS011;4187;42.778;23.242;2023-09-07T05:36:27;7.65;;;6.95;;
8297;SDS011;4187;42.778;23.242;2023-09-07T05:38:54;8.70;;;7.90;;
8297;SDS011;4187;42.778;23.242;2023-09-07T05:41:22;8.73;;;7.82;;
8297;SDS011;4187;42.778;23.242;2023-09-07T05:43:48;10.25;;;8.52;;
8297;SDS011;4187;42.778;23.242;2023-09-07T05:46:15;11.07;;;8.15;;
8297;SDS011;4187;42.778;23.242;2023-09-07T05:48:42;8.90;;;8.02;;
8297;SDS011;4187;42.778;23.242;2023-09-07T05:51:09;8.20;;;6.68;;
8297;SDS011;4187;42.778;23.242;2023-09-07T05:53:36;7.88;;;6.63;;
8297;SDS011;4187;42.778;23.242;2023-09-07T05:56:03;7.63;;;5.63;;
8297;SDS011;4187;42.778;23.242;2023-09-07T05:58:31;5.55;;;4.97;;
8297;SDS011;4187;42.778;23.242;2023-09-07T06:00:59;7.57;;;6.20;;
8297;SDS011;4187;42.778;23.242;2023-09-07T06:03:26;4.68;;;4.10;;
8297;SDS011;4187;42.778;23.242;2023-09-07T06:06:08;6.22;;;4.80;;
8297;SDS011;4187;42.778;23.242;2023-09-07T06:08:34;8.20;;;4.80;;
8297;SDS011;4187;42.778;23.242;2023-09-07T06:11:01;9.10;;;4.68;;
8297;SDS011;4187;42.778;23.242;2023-09-07T06:13:28;7.82;;;5.25;;
8297;SDS011;4187;42.778;23.242;2023-09-07T06:15:56;6.68;;;5.07;;
8297;SDS011;4187;42.778;23.242;2023-09-07T06:18:25;10.40;;;5.85;;
8297;SDS011;4187;42.778;23.242;2023-09-07T06:20:52;7.68;;;5.20;;
8297;SDS011;4187;42.778;23.242;2023-09-07T06:23:19;6.60;;;5.60;;
8297;SDS011;4187;42.778;23.242;2023-09-07T06:25:46;7.55;;;5.38;;
8297;SDS011;4187;42.778;23.242;2023-09-07T06:28:13;7.03;;;6.32;;
8297;SDS011;4187;42.778;23.242;2023-09-07T06:30:39;10.35;;;6.97;;
8297;SDS011;4187;42.778;23.242;2023-09-07T06:33:07;8.43;;;7.32;;
8297;SDS011;4187;42.778;23.242;2023-09-07T06:35:34;7.60;;;6.82;;
8297;SDS011;4187;42.778;23.242;2023-09-07T06:38:01;9.40;;;7.90;;
8297;SDS011;4187;42.778;23.242;2023-09-07T06:40:28;8.50;;;7.70;;
8297;SDS011;4187;42.778;23.242;2023-09-07T06:42:55;11.10;;;7.88;;
8297;SDS011;4187;42.778;23.242;2023-09-07T06:45:22;8.52;;;7.60;;
8297;SDS011;4187;42.778;23.242;2023-09-07T06:47:49;8.70;;;7.13;;
8297;SDS011;4187;42.778;23.242;2023-09-07T06:50:19;8.30;;;6.85;;
8297;SDS011;4187;42.778;23.242;2023-09-07T06:52:46;8.23;;;7.53;;
8297;SDS011;4187;42.778;23.242;2023-09-07T06:55:13;11.13;;;6.93;;
8297;SDS011;4187;42.778;23.242;2023-09-07T06:57:40;10.80;;;6.78;;
8297;SDS011;4187;42.778;23.242;2023-09-07T07:00:07;11.30;;;6.90;;
8297;SDS011;4187;42.778;23.242;2023-09-07T07:02:35;7.93;;;6.90;;
8297;SDS011;4187;42.778;23.242;2023-09-07T07:05:02;10.30;;;6.57;;
8297;SDS011;4187;42.778;23.242;2023-09-07T07:07:31;10.85;;;6.65;;
8297;SDS011;4187;42.778;23.242;2023-09-07T07:09:57;9.07;;;7.45;;
8297;SDS011;4187;42.778;23.242;2023-09-07T07:12:24;7.55;;;6.85;;
8297;SDS011;4187;42.778;23.242;2023-09-07T07:14:51;9.55;;;6.45;;
8297;SDS011;4187;42.778;23.242;2023-09-07T07:17:18;6.38;;;5.70;;
8297;SDS011;4187;42.778;23.242;2023-09-07T07:19:45;8.52;;;5.93;;
8297;SDS011;4187;42.778;23.242;2023-09-07T07:22:12;5.65;;;4.95;;
8297;SDS011;4187;42.778;23.242;2023-09-07T07:24:40;7.85;;;4.95;;
8297;SDS011;4187;42.778;23.242;2023-09-07T07:27:08;5.88;;;4.97;;
8297;SDS011;4187;42.778;23.242;2023-09-07T07:29:36;6.68;;;5.10;;
8297;SDS011;4187;42.778;23.242;2023-09-07T07:32:03;6.55;;;5.97;;
8297;SDS011;4187;42.778;23.242;2023-09-07T07:34:30;5.43;;;5.03;;
8297;SDS011;4187;42.778;23.242;2023-09-07T07:36:57;6.90;;;5.40;;
8297;SDS011;4187;42.778;23.242;2023-09-07T07:39:24;7.43;;;5.15;;
8297;SDS011;4187;42.778;23.242;2023-09-07T07:41:52;7.20;;;6.53;;
8297;SDS011;4187;42.778;23.242;2023-09-07T07:44:20;9.70;;;6.40;;
8297;SDS011;4187;42.778;23.242;2023-09-07T07:46:47;8.55;;;5.70;;
8297;SDS011;4187;42.778;23.242;2023-09-07T07:49:14;6.10;;;5.50;;
8297;SDS011;4187;42.778;23.242;2023-09-07T07:51:40;6.22;;;5.63;;
8297;SDS011;4187;42.778;23.242;2023-09-07T07:54:07;8.30;;;5.82;;
8297;SDS011;4187;42.778;23.242;2023-09-07T07:56:34;6.70;;;5.78;;
8297;SDS011;4187;42.778;23.242;2023-09-07T07:59:02;6.70;;;6.10;;
8297;SDS011;4187;42.778;23.242;2023-09-07T08:01:29;6.13;;;5.57;;
8297;SDS011;4187;42.778;23.242;2023-09-07T08:03:56;5.38;;;4.85;;
8297;SDS011;4187;42.778;23.242;2023-09-07T08:06:22;6.50;;;4.88;;
8297;SDS011;4187;42.778;23.242;2023-09-07T08:08:49;6.38;;;5.70;;
8297;SDS011;4187;42.778;23.242;2023-09-07T08:11:16;8.70;;;5.72;;
8297;SDS011;4187;42.778;23.242;2023-09-07T08:13:46;6.80;;;5.47;;
8297;SDS011;4187;42.778;23.242;2023-09-07T08:16:14;6.30;;;5.72;;
8297;SDS011;4187;42.778;23.242;2023-09-07T08:18:41;8.63;;;5.47;;
8297;SDS011;4187;42.778;23.242;2023-09-07T08:21:09;9.35;;;7.15;;
8297;SDS011;4187;42.778;23.242;2023-09-07T08:23:35;8.55;;;7.10;;
8297;SDS011;4187;42.778;23.242;2023-09-07T08:26:02;13.45;;;7.07;;
8297;SDS011;4187;42.778;23.242;2023-09-07T08:28:30;9.98;;;7.50;;
8297;SDS011;4187;42.778;23.242;2023-09-07T08:30:57;7.53;;;6.43;;
8297;SDS011;4187;42.778;23.242;2023-09-07T08:33:27;8.90;;;6.80;;
8297;SDS011;4187;42.778;23.242;2023-09-07T08:35:55;8.55;;;7.75;;
8297;SDS011;4187;42.778;23.242;2023-09-07T08:38:25;7.50;;;6.70;;
8297;SDS011;4187;42.778;23.242;2023-09-07T08:40:53;7.95;;;6.85;;
8297;SDS011;4187;42.778;23.242;2023-09-07T08:43:20;8.05;;;7.20;;
8297;SDS011;4187;42.778;23.242;2023-09-07T08:45:49;7.45;;;6.68;;
8297;SDS011;4187;42.778;23.242;2023-09-07T08:48:19;8.05;;;7.07;;
8297;SDS011;4187;42.778;23.242;2023-09-07T08:50:48;7.50;;;6.35;;
8297;SDS011;4187;42.778;23.242;2023-09-07T08:53:17;7.63;;;5.85;;
8297;SDS011;4187;42.778;23.242;2023-09-07T08:55:45;6.53;;;5.93;;
8297;SDS011;4187;42.778;23.242;2023-09-07T08:58:12;6.32;;;5.03;;
8297;SDS011;4187;42.778;23.242;2023-09-07T09:00:39;6.82;;;5.40;;
8297;SDS011;4187;42.778;23.242;2023-09-07T09:03:09;7.93;;;5.30;;
8297;SDS011;4187;42.778;23.242;2023-09-07T09:05:37;4.90;;;4.40;;
8297;SDS011;4187;42.778;23.242;2023-09-07T09:08:07;6.07;;;4.75;;
8297;SDS011;4187;42.778;23.242;2023-09-07T09:10:37;8.25;;;4.72;;
8297;SDS011;4187;42.778;23.242;2023-09-07T09:13:05;5.07;;;4.38;;
8297;SDS011;4187;42.778;23.242;2023-09-07T09:15:32;9.20;;;4.95;;
8297;SDS011;4187;42.778;23.242;2023-09-07T09:18:08;6.00;;;5.18;;
8297;SDS011;4187;42.778;23.242;2023-09-07T09:20:37;8.50;;;4.75;;
8297;SDS011;4187;42.778;23.242;2023-09-07T09:23:04;6.47;;;4.93;;
8297;SDS011;4187;42.778;23.242;2023-09-07T09:25:33;5.55;;;4.38;;
8297;SDS011;4187;42.778;23.242;2023-09-07T09:28:00;7.32;;;3.83;;
8297;SDS011;4187;42.778;23.242;2023-09-07T09:30:27;5.53;;;4.30;;
8297;SDS011;4187;42.778;23.242;2023-09-07T09:32:55;4.53;;;4.13;;
8297;SDS011;4187;42.778;23.242;2023-09-07T09:35:23;5.55;;;4.65;;
8297;SDS011;4187;42.778;23.242;2023-09-07T09:37:50;5.28;;;4.22;;
8297;SDS011;4187;42.778;23.242;2023-09-07T09:40:17;4.93;;;4.43;;
8297;SDS011;4187;42.778;23.242;2023-09-07T09:42:45;6.65;;;4.40;;
8297;SDS011;4187;42.778;23.242;2023-09-07T09:45:12;4.53;;;4.07;;
8297;SDS011;4187;42.778;23.242;2023-09-07T09:47:40;4.75;;;4.35;;
8297;SDS011;4187;42.778;23.242;2023-09-07T09:50:08;5.10;;;3.33;;
8297;SDS011;4187;42.778;23.242;2023-09-07T09:52:37;3.92;;;3.20;;
8297;SDS011;4187;42.778;23.242;2023-09-07T09:55:05;4.15;;;3.75;;
8297;SDS011;4187;42.778;23.242;2023-09-07T09:57:33;5.05;;;3.72;;
8297;SDS011;4187;42.778;23.242;2023-09-07T10:00:03;5.25;;;3.45;;
8297;SDS011;4187;42.778;23.242;2023-09-07T10:02:45;5.43;;;3.97;;
8297;SDS011;4187;42.778;23.242;2023-09-07T10:05:15;4.35;;;3.95;;
8297;SDS011;4187;42.778;23.242;2023-09-07T10:07:44;5.07;;;4.22;;
8297;SDS011;4187;42.778;23.242;2023-09-07T10:10:14;5.47;;;4.10;;
8297;SDS011;4187;42.778;23.242;2023-09-07T10:12:41;4.18;;;3.78;;
8297;SDS011;4187;42.778;23.242;2023-09-07T10:18:02;4.15;;;3.75;;
8297;SDS011;4187;42.778;23.242;2023-09-07T10:20:51;4.85;;;3.95;;
8297;SDS011;4187;42.778;23.242;2023-09-07T10:23:21;8.23;;;4.45;;
8297;SDS011;4187;42.778;23.242;2023-09-07T10:25:49;4.10;;;3.70;;
8297;SDS011;4187;42.778;23.242;2023-09-07T10:28:17;5.53;;;3.60;;
8297;SDS011;4187;42.778;23.242;2023-09-07T10:30:46;3.78;;;3.42;;
8297;SDS011;4187;42.778;23.242;2023-09-07T10:33:24;3.78;;;3.47;;
8297;SDS011;4187;42.778;23.242;2023-09-07T10:35:51;4.68;;;4.05;;
8297;SDS011;4187;42.778;23.242;2023-09-07T10:38:17;5.03;;;4.00;;
8297;SDS011;4187;42.778;23.242;2023-09-07T10:40:44;5.80;;;4.00;;
8297;SDS011;4187;42.778;23.242;2023-09-07T10:43:11;4.65;;;3.97;;
8297;SDS011;4187;42.778;23.242;2023-09-07T10:45:38;3.95;;;3.60;;
8297;SDS011;4187;42.778;23.242;2023-09-07T10:48:06;4.30;;;3.90;;
8297;SDS011;4187;42.778;23.242;2023-09-07T10:50:41;7.05;;;4.63;;
8297;SDS011;4187;42.778;23.242;2023-09-07T10:53:09;6.32;;;4.20;;
8297;SDS011;4187;42.778;23.242;2023-09-07T10:55:38;4.32;;;3.63;;
8297;SDS011;4187;42.778;23.242;2023-09-07T10:58:05;5.38;;;4.38;;
8297;SDS011;4187;42.778;23.242;2023-09-07T11:00:32;6.97;;;4.18;;
8297;SDS011;4187;42.778;23.242;2023-09-07T11:02:59;7.28;;;4.65;;
8297;SDS011;4187;42.778;23.242;2023-09-07T11:05:27;5.68;;;4.40;;
8297;SDS011;4187;42.778;23.242;2023-09-07T11:07:54;9.57;;;4.90;;
8297;SDS011;4187;42.778;23.242;2023-09-07T11:10:25;5.15;;;3.97;;
8297;SDS011;4187;42.778;23.242;2023-09-07T11:12:53;7.35;;;4.35;;
8297;SDS011;4187;42.778;23.242;2023-09-07T11:15:20;8.30;;;4.15;;
8297;SDS011;4187;42.778;23.242;2023-09-07T11:17:47;5.80;;;4.32;;
8297;SDS011;4187;42.778;23.242;2023-09-07T11:20:14;9.68;;;4.38;;
8297;SDS011;4187;42.778;23.242;2023-09-07T11:22:42;6.45;;;4.80;;
8297;SDS011;4187;42.778;23.242;2023-09-07T11:25:09;5.57;;;3.85;;
8297;SDS011;4187;42.778;23.242;2023-09-07T11:27:36;4.82;;;3.80;;
8297;SDS011;4187;42.778;23.242;2023-09-07T11:30:06;5.65;;;4.88;;
8297;SDS011;4187;42.778;23.242;2023-09-07T11:32:34;6.40;;;4.72;;
8297;SDS011;4187;42.778;23.242;2023-09-07T11:35:01;4.82;;;4.32;;
8297;SDS011;4187;42.778;23.242;2023-09-07T11:37:28;5.97;;;4.78;;
8297;SDS011;4187;42.778;23.242;2023-09-07T11:39:56;6.15;;;4.55;;
8297;SDS011;4187;42.778;23.242;2023-09-07T11:42:23;5.35;;;4.25;;
8297;SDS011;4187;42.778;23.242;2023-09-07T11:44:50;5.13;;;4.03;;
8297;SDS011;4187;42.778;23.242;2023-09-07T11:47:17;6.95;;;4.90;;
8297;SDS011;4187;42.778;23.242;2023-09-07T11:49:43;4.80;;;4.40;;
8297;SDS011;4187;42.778;23.242;2023-09-07T11:52:11;4.78;;;4.40;;
8297;SDS011;4187;42.778;23.242;2023-09-07T11:54:38;6.03;;;4.47;;
8297;SDS011;4187;42.778;23.242;2023-09-07T11:57:06;6.90;;;4.63;;
8297;SDS011;4187;42.778;23.242;2023-09-07T11:59:34;6.13;;;4.65;;
8297;SDS011;4187;42.778;23.242;2023-09-07T12:02:01;6.03;;;4.70;;
8297;SDS011;4187;42.778;23.242;2023-09-07T12:04:29;10.63;;;4.78;;
8297;SDS011;4187;42.778;23.242;2023-09-07T12:06:55;5.45;;;4.75;;
8297;SDS011;4187;42.778;23.242;2023-09-07T12:09:22;6.55;;;4.40;;
8297;SDS011;4187;42.778;23.242;2023-09-07T12:11:49;7.63;;;4.60;;
8297;SDS011;4187;42.778;23.242;2023-09-07T12:14:17;6.03;;;4.95;;
8297;SDS011;4187;42.778;23.242;2023-09-07T12:16:44;5.47;;;4.50;;
8297;SDS011;4187;42.778;23.242;2023-09-07T12:19:11;6.68;;;4.80;;
8297;SDS011;4187;42.778;23.242;2023-09-07T12:21:38;5.35;;;4.85;;
8297;SDS011;4187;42.778;23.242;2023-09-07T12:24:06;5.18;;;4.68;;
8297;SDS011;4187;42.778;23.242;2023-09-07T12:26:33;4.63;;;4.22;;
8297;SDS011;4187;42.778;23.242;2023-09-07T12:29:00;7.20;;;4.45;;
8297;SDS011;4187;42.778;23.242;2023-09-07T12:31:30;8.35;;;4.53;;
8297;SDS011;4187;42.778;23.242;2023-09-07T12:33:57;5.60;;;4.22;;
8297;SDS011;4187;42.778;23.242;2023-09-07T12:36:24;5.10;;;4.25;;
8297;SDS011;4187;42.778;23.242;2023-09-07T12:38:54;5.15;;;4.75;;
8297;SDS011;4187;42.778;23.242;2023-09-07T12:41:22;5.47;;;4.95;;
8297;SDS011;4187;42.778;23.242;2023-09-07T12:43:49;5.72;;;4.32;;
8297;SDS011;4187;42.778;23.242;2023-09-07T12:46:17;5.70;;;4.03;;
8297;SDS011;4187;42.778;23.242;2023-09-07T12:48:46;6.22;;;3.85;;
8297;SDS011;4187;42.778;23.242;2023-09-07T12:51:13;5.05;;;4.57;;
8297;SDS011;4187;42.778;23.242;2023-09-07T12:53:39;4.88;;;4.38;;
8297;SDS011;4187;42.778;23.242;2023-09-07T12:56:06;8.32;;;4.00;;
8297;SDS011;4187;42.778;23.242;2023-09-07T12:58:33;8.10;;;4.97;;
8297;SDS011;4187;42.778;23.242;2023-09-07T13:01:00;5.28;;;4.78;;
8297;SDS011;4187;42.778;23.242;2023-09-07T13:03:27;5.50;;;4.40;;
8297;SDS011;4187;42.778;23.242;2023-09-07T13:05:55;5.60;;;4.00;;
8297;SDS011;4187;42.778;23.242;2023-09-07T13:08:22;7.50;;;3.90;;
8297;SDS011;4187;42.778;23.242;2023-09-07T13:10:49;5.15;;;4.07;;
8297;SDS011;4187;42.778;23.242;2023-09-07T13:13:16;4.55;;;4.15;;
8297;SDS011;4187;42.778;23.242;2023-09-07T13:15:43;5.97;;;4.47;;
8297;SDS011;4187;42.778;23.242;2023-09-07T13:18:10;5.45;;;4.10;;
8297;SDS011;4187;42.778;23.242;2023-09-07T13:20:37;6.03;;;4.57;;
8297;SDS011;4187;42.778;23.242;2023-09-07T13:23:05;6.75;;;4.53;;
8297;SDS011;4187;42.778;23.242;2023-09-07T13:25:32;5.20;;;4.70;;
8297;SDS011;4187;42.778;23.242;2023-09-07T13:27:59;5.75;;;4.15;;
8297;SDS011;4187;42.778;23.242;2023-09-07T13:30:26;7.28;;;5.18;;
8297;SDS011;4187;42.778;23.242;2023-09-07T13:32:53;5.78;;;4.70;;
8297;SDS011;4187;42.778;23.242;2023-09-07T13:35:19;5.93;;;4.95;;
8297;SDS011;4187;42.778;23.242;2023-09-07T13:37:46;5.07;;;4.57;;
8297;SDS011;4187;42.778;23.242;2023-09-07T13:40:14;5.78;;;4.40;;
8297;SDS011;4187;42.778;23.242;2023-09-07T13:42:41;7.78;;;5.05;;
8297;SDS011;4187;42.778;23.242;2023-09-07T13:45:08;6.68;;;4.35;;
8297;SDS011;4187;42.778;23.242;2023-09-07T13:47:36;7.32;;;4.90;;
8297;SDS011;4187;42.778;23.242;2023-09-07T13:50:03;6.78;;;4.70;;
8297;SDS011;4187;42.778;23.242;2023-09-07T13:52:30;9.15;;;4.78;;
8297;SDS011;4187;42.778;23.242;2023-09-07T13:54:57;6.28;;;4.65;;
8297;SDS011;4187;42.778;23.242;2023-09-07T13:57:25;6.57;;;4.32;;
8297;SDS011;4187;42.778;23.242;2023-09-07T13:59:55;6.65;;;4.88;;
8297;SDS011;4187;42.778;23.242;2023-09-07T14:02:22;5.47;;;3.90;;
8297;SDS011;4187;42.778;23.242;2023-09-07T14:04:49;6.13;;;4.38;;
8297;SDS011;4187;42.778;23.242;2023-09-07T14:07:17;5.68;;;4.43;;
8297;SDS011;4187;42.778;23.242;2023-09-07T14:09:44;7.05;;;4.82;;
8297;SDS011;4187;42.778;23.242;2023-09-07T14:12:11;8.98;;;4.50;;
8297;SDS011;4187;42.778;23.242;2023-09-07T14:14:39;6.22;;;4.90;;
8297;SDS011;4187;42.778;23.242;2023-09-07T14:17:06;5.47;;;4.88;;
8297;SDS011;4187;42.778;23.242;2023-09-07T14:19:33;6.13;;;4.32;;
8297;SDS011;4187;42.778;23.242;2023-09-07T14:22:00;4.93;;;4.53;;
8297;SDS011;4187;42.778;23.242;2023-09-07T14:24:27;5.00;;;4.50;;
8297;SDS011;4187;42.778;23.242;2023-09-07T14:26:54;14.10;;;5.32;;
8297;SDS011;4187;42.778;23.242;2023-09-07T14:29:20;5.13;;;4.22;;
8297;SDS011;4187;42.778;23.242;2023-09-07T14:31:49;5.25;;;4.75;;
8297;SDS011;4187;42.778;23.242;2023-09-07T14:34:16;5.93;;;4.65;;
8297;SDS011;4187;42.778;23.242;2023-09-07T14:36:42;5.63;;;4.38;;
8297;SDS011;4187;42.778;23.242;2023-09-07T14:39:09;5.97;;;4.75;;
8297;SDS011;4187;42.778;23.242;2023-09-07T14:41:37;5.18;;;4.07;;
8297;SDS011;4187;42.778;23.242;2023-09-07T14:44:05;4.82;;;4.25;;
8297;SDS011;4187;42.778;23.242;2023-09-07T14:46:32;5.10;;;4.32;;
8297;SDS011;4187;42.778;23.242;2023-09-07T14:49:00;4.70;;;4.22;;
8297;SDS011;4187;42.778;23.242;2023-09-07T14:51:27;4.90;;;4.40;;
8297;SDS011;4187;42.778;23.242;2023-09-07T14:53:54;8.75;;;5.03;;
8297;SDS011;4187;42.778;23.242;2023-09-07T14:56:21;7.22;;;4.68;;
8297;SDS011;4187;42.778;23.242;2023-09-07T14:58:48;12.65;;;4.38;;
8297;SDS011;4187;42.778;23.242;2023-09-07T15:01:14;8.63;;;5.00;;